Terminal Aerodrome Forecast
Issued by NWS

Home | Current Version | Previous Version | Text Only | Print | Product List | Glossary On
Versions: 1 2 3 4 5 6 7 8 9 10 11 12 13 14 15 16 17
494
FTUS45 KTFX 030522
TAFGTF
TAF
KGTF 030522Z 0306/0406 22020G25KT P6SM BKN090
     FM031700 22025G35KT P6SM SCT090
     FM040000 25020G30KT P6SM SCT150=

USA.gov is the U.S. government's official web portal to all federal, state and local government web resources and services.